createdAt,value
2018-07-20T00:00:16.162Z,31.20
2018-07-20T00:02:50.610Z,31.20
2018-07-20T00:05:24.889Z,31.30
2018-07-20T00:08:00.005Z,31.30
2018-07-20T00:10:34.431Z,31.40
2018-07-20T00:15:41.867Z,31.50
2018-07-20T00:18:16.085Z,31.50
2018-07-20T00:20:51.916Z,31.50
2018-07-20T00:23:26.020Z,31.60
2018-07-20T00:28:37.122Z,31.70
2018-07-20T00:31:10.958Z,31.70
2018-07-20T00:33:45.821Z,31.80
2018-07-20T00:36:21.279Z,31.80
2018-07-20T00:38:55.705Z,31.90
2018-07-20T00:41:30.041Z,32.00
2018-07-20T00:46:37.502Z,32.20
2018-07-20T00:49:11.848Z,32.20
2018-07-20T00:51:45.677Z,32.30
2018-07-20T00:54:19.849Z,32.40
2018-07-20T00:56:54.246Z,32.40
2018-07-20T00:59:28.622Z,32.40
2018-07-20T01:02:02.965Z,32.40
2018-07-20T01:04:36.946Z,32.40
2018-07-20T01:07:11.608Z,32.40
2018-07-20T01:09:45.520Z,32.40
2018-07-20T01:12:19.690Z,32.40
2018-07-20T01:14:53.812Z,32.40
2018-07-20T01:17:27.978Z,32.40
2018-07-20T01:20:04.304Z,32.40
2018-07-20T01:25:11.422Z,32.40
2018-07-20T01:27:45.382Z,32.40
2018-07-20T01:30:19.385Z,32.40
2018-07-20T01:32:53.881Z,32.50
2018-07-20T01:35:28.030Z,32.50
2018-07-20T01:38:02.590Z,32.50
2018-07-20T01:43:10.278Z,32.50
2018-07-20T01:45:44.369Z,32.60
2018-07-20T01:48:18.931Z,32.70
2018-07-20T01:53:27.074Z,32.80
2018-07-20T01:56:02.077Z,32.80
2018-07-20T01:58:36.576Z,32.90
2018-07-20T02:01:11.284Z,33.00
2018-07-20T02:03:45.561Z,33.10
2018-07-20T02:06:20.983Z,33.10
2018-07-20T02:11:28.075Z,33.20
2018-07-20T02:14:02.306Z,33.20
2018-07-20T02:16:38.480Z,33.30
2018-07-20T02:19:12.015Z,33.40
2018-07-20T02:24:57.251Z,33.60
2018-07-20T02:27:35.498Z,33.80
2018-07-20T02:30:11.417Z,33.90
2018-07-20T03:57:05.117Z,34.20
2018-07-20T03:59:39.501Z,34.40
2018-07-20T04:02:13.369Z,34.50
2018-07-20T04:04:48.566Z,34.70
2018-07-20T04:07:22.962Z,34.90
2018-07-20T04:09:57.152Z,35.10
2018-07-20T04:12:31.092Z,35.30
2018-07-20T04:15:05.786Z,35.30
2018-07-20T04:56:10.164Z,35.50
2018-07-20T04:58:45.521Z,35.60
2018-07-20T05:01:19.615Z,35.50
2018-07-20T05:03:53.543Z,35.60
2018-07-20T05:06:31.118Z,35.80
2018-07-20T05:09:16.790Z,35.90
2018-07-20T05:11:58.951Z,36.00
2018-07-20T05:14:37.492Z,36.20
2018-07-20T05:17:17.677Z,36.30
2018-07-20T05:20:15.899Z,36.40
2018-07-20T05:23:01.149Z,36.50
2018-07-20T05:28:23.476Z,36.70
2018-07-20T05:30:57.458Z,36.80
2018-07-20T05:33:31.413Z,36.90
2018-07-20T05:36:05.076Z,37.00
2018-07-20T05:38:39.708Z,37.10
2018-07-20T05:41:14.004Z,37.10
2018-07-20T05:43:48.262Z,37.20
2018-07-20T05:46:26.253Z,37.30
2018-07-20T05:49:05.063Z,37.40
2018-07-20T05:51:41.362Z,37.40
2018-07-20T05:56:54.876Z,37.50
2018-07-20T05:59:30.430Z,37.60
2018-07-20T06:02:04.847Z,37.70
2018-07-20T06:04:40.830Z,37.70
2018-07-20T06:07:15.376Z,37.80
2018-07-20T06:09:49.506Z,37.80
2018-07-20T06:12:23.940Z,37.90
2018-07-20T06:14:58.409Z,38.00
2018-07-20T06:20:05.595Z,38.00
2018-07-20T06:22:40.396Z,38.10
2018-07-20T06:30:21.588Z,38.10
2018-07-20T06:32:56.217Z,38.10
2018-07-20T06:35:30.519Z,38.10
2018-07-20T06:38:05.517Z,38.10
2018-07-20T06:40:39.648Z,38.10
2018-07-20T06:43:14.488Z,38.10
2018-07-20T06:45:50.059Z,38.10
2018-07-20T06:48:24.520Z,38.10
2018-07-20T06:50:58.810Z,38.10
2018-07-20T06:53:33.863Z,38.10
2018-07-20T06:56:09.076Z,38.10
2018-07-20T06:58:43.205Z,38.10
2018-07-20T07:01:19.153Z,38.20
2018-07-20T07:03:53.553Z,38.20
2018-07-20T07:06:28.243Z,38.20
2018-07-20T07:11:34.976Z,38.20
2018-07-20T07:14:08.874Z,38.20
2018-07-20T07:19:16.108Z,38.30
2018-07-20T07:21:51.003Z,38.30
2018-07-20T07:24:25.135Z,38.30
2018-07-20T07:26:59.315Z,38.30
2018-07-20T07:29:39.452Z,38.20
2018-07-20T07:32:13.956Z,38.20
2018-07-20T07:34:48.753Z,38.10
2018-07-20T07:37:22.548Z,38.10
2018-07-20T07:39:57.087Z,38.00
2018-07-20T07:42:31.112Z,37.90
2018-07-20T07:45:05.256Z,37.90
2018-07-20T07:47:39.335Z,37.80
2018-07-20T07:50:14.208Z,37.80
2018-07-20T07:52:48.928Z,37.70
2018-07-20T07:55:22.957Z,37.70
2018-07-20T08:00:30.376Z,37.70
2018-07-20T08:05:37.580Z,37.60
2018-07-20T08:08:15.629Z,37.60
2018-07-20T08:10:50.011Z,37.60
2018-07-20T08:13:24.779Z,37.50
2018-07-20T08:15:59.042Z,37.50
2018-07-20T08:18:33.708Z,37.50
2018-07-20T08:21:08.782Z,37.50
2018-07-20T08:23:43.561Z,37.50
2018-07-20T08:26:17.955Z,37.40
2018-07-20T08:31:24.962Z,37.30
2018-07-20T08:33:58.802Z,37.30
2018-07-20T08:36:32.989Z,37.20
2018-07-20T08:39:07.823Z,37.20
2018-07-20T08:41:42.462Z,37.20
2018-07-20T08:44:16.363Z,37.10
2018-07-20T08:49:23.606Z,37.00
2018-07-20T08:52:03.996Z,37.00
2018-07-20T08:54:38.944Z,36.90
2018-07-20T08:57:18.677Z,37.00
2018-07-20T08:59:54.233Z,36.90
2018-07-20T09:02:28.457Z,36.90
2018-07-20T09:05:06.171Z,36.90
2018-07-20T09:10:12.758Z,36.80
2018-07-20T09:12:47.256Z,36.80
2018-07-20T09:17:54.327Z,36.70
2018-07-20T09:20:29.549Z,36.60
2018-07-20T09:23:05.313Z,36.50
2018-07-20T09:25:39.526Z,36.40
2018-07-20T09:28:14.168Z,36.30
2018-07-20T09:30:50.708Z,36.20
2018-07-20T09:33:25.911Z,36.10
2018-07-20T09:36:01.489Z,36.00
2018-07-20T09:38:37.242Z,36.00
2018-07-20T09:41:11.891Z,35.90
2018-07-20T09:43:46.758Z,35.80
2018-07-20T09:56:14.760Z,35.80
2018-07-20T09:58:50.083Z,35.70
2018-07-20T10:01:25.527Z,35.10
2018-07-20T10:03:59.962Z,35.10
2018-07-20T10:06:35.060Z,35.00
2018-07-20T10:09:11.955Z,35.00
2018-07-20T10:11:46.452Z,35.00
2018-07-20T10:14:20.761Z,35.00
2018-07-20T10:16:56.481Z,35.00
2018-07-20T10:19:30.794Z,34.90
2018-07-20T10:22:05.521Z,35.00
2018-07-20T10:24:39.859Z,35.00
2018-07-20T10:27:13.852Z,35.00
2018-07-20T10:29:47.951Z,35.00
2018-07-20T10:32:22.989Z,35.00
2018-07-20T10:34:57.110Z,35.00
2018-07-20T10:37:31.181Z,35.00
2018-07-20T10:40:06.228Z,35.00
2018-07-20T10:42:40.054Z,34.90
2018-07-20T10:45:15.034Z,34.90
2018-07-20T10:47:49.183Z,34.90
2018-07-20T10:52:55.596Z,34.90
2018-07-20T10:55:29.607Z,34.90
2018-07-20T10:58:04.103Z,34.90
2018-07-20T11:00:37.930Z,34.90
2018-07-20T11:03:12.205Z,34.90
2018-07-20T11:05:46.036Z,34.90
2018-07-20T11:10:55.276Z,34.80
2018-07-20T11:32:17.555Z,34.80
2018-07-20T11:37:25.344Z,34.00
2018-07-20T11:39:58.908Z,34.00
2018-07-20T11:42:32.431Z,33.90
2018-07-20T11:45:07.467Z,34.00
2018-07-20T11:47:41.356Z,34.00
2018-07-20T11:56:10.237Z,34.00
2018-07-20T11:58:43.816Z,34.10
2018-07-20T12:01:19.252Z,33.90
2018-07-20T12:03:52.847Z,33.90
2018-07-20T12:06:26.985Z,33.80
2018-07-20T12:09:01.335Z,33.80
2018-07-20T12:11:35.271Z,33.80
2018-07-20T12:16:43.711Z,33.90
2018-07-20T12:21:49.368Z,33.90
2018-07-20T12:26:58.809Z,33.90
2018-07-20T12:32:05.529Z,33.90
2018-07-20T12:37:11.371Z,34.00
2018-07-20T12:39:45.262Z,34.00
2018-07-20T12:42:20.168Z,34.00
2018-07-20T12:44:54.414Z,34.00
2018-07-20T12:47:28.375Z,34.00
2018-07-20T12:50:02.209Z,34.00
2018-07-20T12:52:35.927Z,34.00
2018-07-20T12:55:09.720Z,34.00
2018-07-20T12:57:43.641Z,33.90
2018-07-20T13:00:18.318Z,33.90
2018-07-20T13:02:53.224Z,33.90
2018-07-20T13:05:27.253Z,33.90
2018-07-20T13:08:01.243Z,33.80
2018-07-20T13:10:36.606Z,33.80
2018-07-20T13:13:16.225Z,33.80
2018-07-20T13:15:50.182Z,33.80
2018-07-20T13:18:24.160Z,33.80
2018-07-20T13:23:30.742Z,33.80
2018-07-20T13:26:05.012Z,33.80
2018-07-20T13:28:38.859Z,33.80
2018-07-20T13:31:12.676Z,33.80
2018-07-20T13:36:20.719Z,33.70
2018-07-20T13:38:57.498Z,33.70
2018-07-20T13:44:06.215Z,33.70
2018-07-20T13:46:40.178Z,33.70
2018-07-20T13:49:14.740Z,33.60
2018-07-20T13:51:48.982Z,33.60
2018-07-20T13:54:27.503Z,33.60
2018-07-20T13:57:01.533Z,33.50
2018-07-20T13:59:36.198Z,33.50
2018-07-20T14:02:10.174Z,33.50
2018-07-20T14:04:44.650Z,33.50
2018-07-20T14:07:21.556Z,33.50
2018-07-20T14:09:56.509Z,33.50
2018-07-20T14:15:09.321Z,33.50
2018-07-20T14:17:44.154Z,33.50
2018-07-20T14:22:51.024Z,33.50
2018-07-20T14:25:26.357Z,33.40
2018-07-20T14:28:00.416Z,33.40
2018-07-20T14:30:36.699Z,33.50
2018-07-20T14:33:10.825Z,33.40
2018-07-20T14:35:47.072Z,33.40
2018-07-20T14:38:22.949Z,33.40
2018-07-20T14:40:57.296Z,33.40
2018-07-20T14:43:32.987Z,33.40
2018-07-20T14:46:07.009Z,33.40
2018-07-20T14:48:42.734Z,33.40
2018-07-20T14:51:18.067Z,33.30
2018-07-20T14:53:52.464Z,33.40
2018-07-20T14:56:26.406Z,33.40
2018-07-20T14:59:02.175Z,33.30
2018-07-20T15:01:38.726Z,33.30
2018-07-20T15:04:15.683Z,33.30
2018-07-20T15:06:51.089Z,33.30
2018-07-20T15:09:26.637Z,33.30
2018-07-20T15:12:02.232Z,33.30
2018-07-20T15:14:44.770Z,33.30
2018-07-20T15:17:19.596Z,33.30
2018-07-20T15:19:55.411Z,33.30
2018-07-20T15:22:33.099Z,33.30
2018-07-20T15:25:09.113Z,33.30
2018-07-20T15:27:43.749Z,33.20
2018-07-20T15:30:19.534Z,33.30
2018-07-20T15:32:54.081Z,33.30
2018-07-20T15:35:29.795Z,33.20
2018-07-20T15:38:04.675Z,33.30
2018-07-20T15:40:39.995Z,33.20
2018-07-20T15:43:18.072Z,33.30
2018-07-20T15:46:05.861Z,33.30
2018-07-20T15:48:32.665Z,33.20
2018-07-20T15:53:40.613Z,33.20
2018-07-20T15:56:14.898Z,33.20
2018-07-20T15:58:50.602Z,33.20
2018-07-20T16:01:24.472Z,33.20
2018-07-20T16:03:58.493Z,33.20
2018-07-20T16:06:33.115Z,33.20
2018-07-20T16:09:07.657Z,33.20
2018-07-20T16:11:43.053Z,33.20
2018-07-20T16:16:51.880Z,33.20
2018-07-20T16:19:25.841Z,33.20
2018-07-20T16:21:59.696Z,33.10
2018-07-20T16:24:35.021Z,33.10
2018-07-20T16:27:11.198Z,33.10
2018-07-20T16:29:45.566Z,33.10
2018-07-20T16:32:20.144Z,33.10
2018-07-20T16:34:54.072Z,33.10
2018-07-20T16:37:29.662Z,33.20
2018-07-20T16:40:05.257Z,33.10
2018-07-20T16:42:39.758Z,33.10
2018-07-20T16:45:14.038Z,33.10
2018-07-20T16:47:48.207Z,33.10
2018-07-20T16:50:24.629Z,33.10
2018-07-20T16:52:58.843Z,33.10
2018-07-20T16:55:33.579Z,33.10
2018-07-20T16:58:07.652Z,33.10
2018-07-20T17:00:42.308Z,33.10
2018-07-20T17:03:16.451Z,33.10
2018-07-20T17:05:50.710Z,33.00
2018-07-20T17:08:25.092Z,33.10
2018-07-20T17:10:59.246Z,33.10
2018-07-20T17:13:33.422Z,33.10
2018-07-20T17:16:07.350Z,33.10
2018-07-20T17:21:57.540Z,33.00
2018-07-20T17:24:31.646Z,33.00
2018-07-20T17:27:05.903Z,33.00
2018-07-20T17:29:39.877Z,32.90
2018-07-20T17:32:13.908Z,32.90
2018-07-20T17:34:47.970Z,32.90
2018-07-20T17:37:22.390Z,32.90
2018-07-20T17:39:57.228Z,32.90
2018-07-20T17:42:31.200Z,32.90
2018-07-20T17:45:05.373Z,32.90
2018-07-20T17:47:39.467Z,32.90
2018-07-20T17:50:13.872Z,32.90
2018-07-20T17:52:47.537Z,32.90
2018-07-20T17:57:54.606Z,32.90
2018-07-20T18:00:30.624Z,32.80
2018-07-20T18:03:05.458Z,32.80
2018-07-20T18:05:39.670Z,32.80
2018-07-20T18:08:18.497Z,32.80
2018-07-20T18:10:59.743Z,32.80
2018-07-20T18:13:43.138Z,32.80
2018-07-20T18:19:12.636Z,32.80
2018-07-20T18:21:56.971Z,32.80
2018-07-20T18:27:38.193Z,32.70
2018-07-20T18:32:47.349Z,32.70
2018-07-20T18:35:25.592Z,32.70
2018-07-20T18:38:02.705Z,32.70
2018-07-20T18:40:37.130Z,32.70
2018-07-20T18:43:11.795Z,32.70
2018-07-20T18:48:19.478Z,32.60
2018-07-20T18:50:53.924Z,32.70
2018-07-20T18:53:28.558Z,32.70
2018-07-20T18:56:14.678Z,32.60
2018-07-20T18:58:50.968Z,32.60
2018-07-20T19:01:25.318Z,32.60
2018-07-20T19:03:59.295Z,32.60
2018-07-20T19:06:36.456Z,32.60
2018-07-20T19:09:13.805Z,32.60
2018-07-20T19:11:49.022Z,32.60
2018-07-20T19:14:24.103Z,32.60
2018-07-20T19:16:59.006Z,32.60
2018-07-20T19:19:34.017Z,32.60
2018-07-20T19:22:08.548Z,32.60
2018-07-20T19:27:16.735Z,32.60
2018-07-20T19:29:51.286Z,32.60
2018-07-20T19:32:26.346Z,32.60
2018-07-20T19:37:32.834Z,32.60
2018-07-20T19:40:07.121Z,32.50
2018-07-20T19:42:41.528Z,32.50
2018-07-20T19:45:15.945Z,32.50
2018-07-20T19:47:51.800Z,32.50
2018-07-20T19:50:26.617Z,32.50
2018-07-20T19:53:00.713Z,32.50
2018-07-20T19:55:36.904Z,32.50
2018-07-20T19:58:11.346Z,32.50
2018-07-20T20:00:46.749Z,32.40
2018-07-20T20:03:20.883Z,32.40
2018-07-20T20:05:54.947Z,32.50
2018-07-20T20:11:02.402Z,32.50
2018-07-20T20:13:36.227Z,32.40
2018-07-20T20:16:11.303Z,32.40
2018-07-20T20:18:45.565Z,32.40
2018-07-20T20:21:22.567Z,32.40
2018-07-20T20:23:56.377Z,32.40
2018-07-20T20:26:31.384Z,32.40
2018-07-20T20:29:05.697Z,32.40
2018-07-20T20:34:12.351Z,32.40
2018-07-20T20:36:46.723Z,32.40
2018-07-20T20:39:20.870Z,32.40
2018-07-20T20:41:55.671Z,32.40
2018-07-20T20:44:29.877Z,32.40
2018-07-20T20:47:04.155Z,32.40
2018-07-20T20:49:38.510Z,32.40
2018-07-20T20:52:14.221Z,32.40
2018-07-20T20:54:47.751Z,32.40
2018-07-20T20:57:22.135Z,32.40
2018-07-20T21:02:31.519Z,32.30
2018-07-20T21:05:05.936Z,32.30
2018-07-20T21:07:40.435Z,32.40
2018-07-20T21:10:16.611Z,32.30
2018-07-20T21:12:51.329Z,32.30
2018-07-20T21:15:26.048Z,32.30
2018-07-20T21:23:08.569Z,32.30
2018-07-20T21:25:42.767Z,32.20
2018-07-20T21:28:17.037Z,32.30
2018-07-20T21:30:51.059Z,32.30
2018-07-20T21:33:25.130Z,32.30
2018-07-20T21:35:59.689Z,32.30
2018-07-20T21:38:34.349Z,32.20
2018-07-20T21:41:08.390Z,32.20
2018-07-20T21:43:42.720Z,32.20
2018-07-20T21:46:16.994Z,32.20
2018-07-20T21:51:25.862Z,32.20
2018-07-20T21:56:32.964Z,32.20
2018-07-20T21:59:07.546Z,32.20
2018-07-20T22:01:43.277Z,32.20
2018-07-20T22:09:23.498Z,32.10
2018-07-20T22:11:58.048Z,32.10
2018-07-20T22:17:05.287Z,32.10
2018-07-20T22:19:39.435Z,32.10
2018-07-20T22:22:13.839Z,32.10
2018-07-20T22:24:48.816Z,32.10
2018-07-20T22:27:22.980Z,32.10
2018-07-20T22:29:59.581Z,32.10
2018-07-20T22:32:33.778Z,32.10
2018-07-20T22:35:11.085Z,32.10
2018-07-20T22:37:46.015Z,32.10
2018-07-20T22:40:20.332Z,32.10
2018-07-20T22:45:27.663Z,32.10
2018-07-20T22:48:03.559Z,32.00
2018-07-20T22:50:37.693Z,32.00
2018-07-20T22:53:11.841Z,32.00
2018-07-20T22:55:46.261Z,32.00
2018-07-20T22:58:20.137Z,32.00
2018-07-20T23:00:54.681Z,32.00
2018-07-20T23:03:28.571Z,32.00
2018-07-20T23:06:05.305Z,32.00
2018-07-20T23:13:45.898Z,32.00
2018-07-20T23:16:21.018Z,32.00
2018-07-20T23:18:55.508Z,32.00
2018-07-20T23:21:30.908Z,32.00
2018-07-20T23:24:05.411Z,32.00
2018-07-20T23:26:40.491Z,32.00
2018-07-20T23:29:16.538Z,32.00
2018-07-20T23:31:51.429Z,32.00
2018-07-20T23:34:26.929Z,32.00
2018-07-20T23:37:01.786Z,31.90
2018-07-20T23:39:36.818Z,32.00
2018-07-20T23:42:11.456Z,32.00
2018-07-20T23:44:45.236Z,32.00
2018-07-20T23:47:19.635Z,32.00
2018-07-20T23:49:54.003Z,32.00
2018-07-20T23:52:28.340Z,32.00
2018-07-20T23:55:02.856Z,32.00
2018-07-20T23:57:37.068Z,32.00
